createdAt,value
2022-11-02T00:01:57.071Z,6.24
2022-11-02T00:04:24.017Z,6.31
2022-11-02T00:06:51.225Z,6.30
2022-11-02T00:09:18.204Z,6.34
2022-11-02T00:11:45.291Z,6.32
2022-11-02T00:14:12.247Z,6.31
2022-11-02T00:16:40.443Z,6.34
2022-11-02T00:19:09.160Z,6.36
2022-11-02T00:21:37.024Z,6.38
2022-11-02T00:24:05.950Z,6.37
2022-11-02T00:26:35.264Z,6.34
2022-11-02T00:29:04.357Z,6.38
2022-11-02T00:31:31.951Z,6.37
2022-11-02T00:33:58.979Z,6.39
2022-11-02T00:36:26.315Z,6.40
2022-11-02T00:38:53.313Z,6.38
2022-11-02T00:41:20.730Z,6.35
2022-11-02T00:43:47.941Z,6.37
2022-11-02T00:46:14.986Z,6.45
2022-11-02T00:48:42.173Z,6.36
2022-11-02T00:51:10.019Z,6.34
2022-11-02T00:53:37.030Z,6.31
2022-11-02T00:56:04.180Z,6.32
2022-11-02T00:58:31.567Z,6.32
2022-11-02T01:00:58.642Z,6.37
2022-11-02T01:03:25.932Z,6.37
2022-11-02T01:05:53.277Z,6.38
2022-11-02T01:08:20.280Z,6.46
2022-11-02T01:10:48.443Z,6.49
2022-11-02T01:13:17.463Z,6.41
2022-11-02T01:15:44.550Z,6.49
2022-11-02T01:18:11.555Z,6.50
2022-11-02T01:20:38.533Z,6.45
2022-11-02T01:23:05.515Z,6.51
2022-11-02T01:25:32.427Z,6.50
2022-11-02T01:28:00.491Z,6.55
2022-11-02T01:30:27.472Z,6.59
2022-11-02T01:32:54.364Z,6.64
2022-11-02T01:35:21.441Z,6.63
2022-11-02T01:37:48.335Z,6.50
2022-11-02T01:40:15.384Z,6.46
2022-11-02T01:42:42.398Z,6.49
2022-11-02T01:45:11.693Z,6.49
2022-11-02T01:47:43.149Z,6.52
2022-11-02T01:50:24.027Z,6.52
2022-11-02T01:52:50.998Z,6.52
2022-11-02T01:55:29.970Z,6.53
2022-11-02T01:58:05.213Z,6.52
2022-11-02T02:00:33.480Z,6.44
2022-11-02T02:03:17.687Z,6.42
2022-11-02T02:05:53.414Z,6.42
2022-11-02T02:08:24.114Z,6.52
2022-11-02T02:10:51.391Z,6.54
2022-11-02T02:13:19.214Z,6.57
2022-11-02T02:16:15.847Z,6.59
2022-11-02T02:19:29.626Z,6.62
2022-11-02T02:22:30.110Z,6.57
2022-11-02T02:25:00.116Z,6.53
2022-11-02T02:28:02.709Z,6.58
2022-11-02T02:30:34.205Z,6.47
2022-11-02T02:33:11.279Z,6.47
2022-11-02T02:35:56.861Z,6.47
2022-11-02T02:38:34.419Z,6.43
2022-11-02T02:41:11.146Z,6.47
2022-11-02T02:43:46.255Z,6.42
2022-11-02T02:46:21.405Z,6.37
2022-11-02T02:48:50.036Z,6.32
2022-11-02T02:51:22.726Z,6.36
2022-11-02T02:54:04.977Z,6.47
2022-11-02T02:56:39.753Z,6.42
2022-11-02T02:59:13.480Z,6.41
2022-11-02T03:01:44.432Z,6.45
2022-11-02T03:04:15.179Z,6.46
2022-11-02T03:06:47.531Z,6.44
2022-11-02T03:09:20.079Z,6.46
2022-11-02T03:11:49.161Z,6.54
2022-11-02T03:14:41.203Z,6.55
2022-11-02T03:17:30.980Z,6.54
2022-11-02T03:20:16.333Z,6.55
2022-11-02T03:22:49.149Z,6.52
2022-11-02T03:25:26.337Z,6.54
2022-11-02T03:28:16.475Z,6.59
2022-11-02T03:30:51.391Z,6.57
2022-11-02T03:33:39.850Z,6.53
2022-11-02T03:36:16.665Z,6.54
2022-11-02T03:39:06.270Z,6.58
2022-11-02T03:41:38.660Z,6.59
2022-11-02T03:44:23.879Z,6.52
2022-11-02T03:46:59.544Z,6.52
2022-11-02T03:49:29.921Z,6.40
2022-11-02T03:52:03.465Z,6.42
2022-11-02T03:54:43.768Z,6.40
2022-11-02T03:57:18.583Z,6.38
2022-11-02T03:59:45.752Z,6.31
2022-11-02T04:02:15.130Z,6.29
2022-11-02T04:04:52.947Z,6.29
2022-11-02T04:07:30.081Z,6.27
2022-11-02T04:09:57.039Z,6.27
2022-11-02T04:12:42.560Z,6.29
2022-11-02T04:15:10.503Z,6.30
2022-11-02T04:17:56.662Z,6.28
2022-11-02T04:20:23.590Z,6.22
2022-11-02T04:23:09.034Z,6.19
2022-11-02T04:25:35.937Z,6.17
2022-11-02T04:28:14.918Z,6.19
2022-11-02T04:30:48.882Z,6.20
2022-11-02T04:33:34.867Z,6.14
2022-11-02T04:36:09.067Z,6.06
2022-11-02T04:38:40.797Z,6.02
2022-11-02T04:41:43.422Z,6.04
2022-11-02T04:44:28.932Z,6.16
2022-11-02T04:47:01.414Z,6.10
2022-11-02T04:49:31.646Z,6.11
2022-11-02T04:51:59.222Z,6.16
2022-11-02T04:54:28.241Z,6.13
2022-11-02T04:56:59.872Z,6.16
2022-11-02T04:59:28.625Z,6.19
2022-11-02T05:01:56.063Z,6.18
2022-11-02T05:04:23.179Z,6.27
2022-11-02T05:06:50.343Z,6.22
2022-11-02T05:09:18.962Z,6.30
2022-11-02T05:11:48.077Z,6.39
2022-11-02T05:14:17.367Z,6.30
2022-11-02T05:16:45.361Z,6.29
2022-11-02T05:19:13.890Z,6.27
2022-11-02T05:21:40.944Z,6.30
2022-11-02T05:24:08.348Z,6.30
2022-11-02T05:26:35.904Z,6.36
2022-11-02T05:29:03.821Z,6.40
2022-11-02T05:31:31.835Z,6.33
2022-11-02T05:33:58.941Z,6.33
2022-11-02T05:36:26.281Z,6.31
2022-11-02T05:38:54.548Z,6.33
2022-11-02T05:41:23.549Z,6.35
2022-11-02T05:43:53.323Z,6.30
2022-11-02T05:46:21.965Z,6.28
2022-11-02T05:48:48.883Z,6.27
2022-11-02T05:51:15.852Z,6.25
2022-11-02T05:53:42.759Z,6.25
2022-11-02T05:56:11.227Z,6.32
2022-11-02T05:58:38.358Z,6.42
2022-11-02T06:01:07.288Z,6.44
2022-11-02T06:03:34.400Z,6.42
2022-11-02T06:06:06.570Z,6.30
2022-11-02T06:08:36.215Z,6.27
2022-11-02T06:11:06.281Z,6.21
2022-11-02T06:13:34.278Z,6.19
2022-11-02T06:16:02.705Z,6.14
2022-11-02T06:18:31.581Z,6.09
2022-11-02T06:20:59.711Z,6.13
2022-11-02T06:23:27.534Z,6.09
2022-11-02T06:25:57.061Z,6.09
2022-11-02T06:28:24.590Z,6.09
2022-11-02T06:30:52.267Z,6.14
2022-11-02T06:33:20.029Z,6.19
2022-11-02T06:35:48.314Z,6.17
2022-11-02T06:38:15.940Z,6.19
2022-11-02T06:40:43.927Z,6.15
2022-11-02T06:43:16.914Z,6.13
2022-11-02T06:45:46.967Z,6.13
2022-11-02T06:48:14.216Z,6.22
2022-11-02T06:50:41.315Z,6.26
2022-11-02T06:53:08.712Z,6.28
2022-11-02T06:55:35.788Z,6.37
2022-11-02T06:58:02.783Z,6.44
2022-11-02T07:00:30.444Z,6.45
2022-11-02T07:03:05.160Z,6.34
2022-11-02T07:05:32.886Z,6.36
2022-11-02T07:07:59.900Z,6.36
2022-11-02T07:10:27.159Z,6.36
2022-11-02T07:12:55.454Z,6.33
2022-11-02T07:15:24.471Z,6.28
2022-11-02T07:17:52.072Z,6.33
2022-11-02T07:20:19.389Z,6.36
2022-11-02T07:22:57.160Z,6.39
2022-11-02T07:25:27.205Z,6.38
2022-11-02T07:27:55.113Z,6.42
2022-11-02T07:30:22.530Z,6.47
2022-11-02T07:32:49.427Z,6.53
2022-11-02T07:35:17.642Z,6.51
2022-11-02T07:37:44.931Z,6.60
2022-11-02T07:40:14.153Z,6.55
2022-11-02T07:42:45.902Z,6.49
2022-11-02T07:45:13.142Z,6.46
2022-11-02T07:47:44.990Z,6.44
2022-11-02T07:50:17.650Z,6.38
2022-11-02T07:52:54.893Z,6.44
2022-11-02T07:55:27.529Z,6.42
2022-11-02T07:58:04.833Z,6.44
2022-11-02T08:00:34.219Z,6.37
2022-11-02T08:03:02.874Z,6.34
2022-11-02T08:05:33.288Z,6.37
2022-11-02T08:08:05.382Z,6.39
2022-11-02T08:10:39.016Z,6.39
2022-11-02T08:13:12.404Z,6.38
2022-11-02T08:15:39.554Z,6.44
2022-11-02T08:18:14.388Z,6.50
2022-11-02T08:20:41.989Z,6.52
2022-11-02T08:23:10.947Z,6.57
2022-11-02T08:25:39.446Z,6.64
2022-11-02T08:28:08.408Z,6.68
2022-11-02T08:30:35.517Z,6.59
2022-11-02T08:33:04.951Z,6.61
2022-11-02T08:35:32.402Z,6.57
2022-11-02T08:38:00.173Z,6.61
2022-11-02T08:40:27.570Z,6.52
2022-11-02T08:43:02.508Z,6.53
2022-11-02T08:45:48.016Z,6.43
2022-11-02T08:48:18.431Z,6.39
2022-11-02T08:50:45.437Z,6.30
2022-11-02T08:53:12.374Z,6.30
2022-11-02T08:55:39.353Z,6.33
2022-11-02T08:58:06.896Z,6.34
2022-11-02T09:00:35.106Z,6.34
2022-11-02T09:03:11.430Z,6.32
2022-11-02T09:05:46.439Z,6.27
2022-11-02T09:08:17.035Z,6.36
2022-11-02T09:10:45.308Z,6.33
2022-11-02T09:13:15.169Z,6.44
2022-11-02T09:15:42.321Z,6.45
2022-11-02T09:18:09.951Z,6.50
2022-11-02T09:20:37.295Z,6.54
2022-11-02T09:23:04.571Z,6.49
2022-11-02T09:25:31.665Z,6.49
2022-11-02T09:27:59.276Z,6.54
2022-11-02T09:30:28.756Z,6.55
2022-11-02T09:33:01.127Z,6.55
2022-11-02T09:35:36.831Z,6.61
2022-11-02T09:38:04.100Z,6.69
2022-11-02T09:40:45.104Z,6.61
2022-11-02T09:43:53.922Z,6.62
2022-11-02T09:46:41.844Z,6.57
2022-11-02T09:49:27.027Z,6.55
2022-11-02T09:51:57.053Z,6.61
2022-11-02T09:54:39.779Z,6.55
2022-11-02T09:57:20.491Z,6.51
2022-11-02T09:59:47.524Z,6.50
2022-11-02T10:02:42.417Z,6.46
2022-11-02T10:05:33.897Z,6.36
2022-11-02T10:08:31.250Z,6.36
2022-11-02T10:11:08.398Z,6.38
2022-11-02T10:13:48.234Z,6.43
2022-11-02T10:16:22.476Z,6.44
2022-11-02T10:18:52.681Z,6.60
2022-11-02T10:21:34.220Z,6.71
2022-11-02T10:24:25.557Z,6.74
2022-11-02T10:26:58.899Z,6.74
2022-11-02T10:29:55.422Z,6.77
2022-11-02T10:32:22.832Z,6.81
2022-11-02T10:34:58.789Z,6.86
2022-11-02T10:37:42.914Z,6.90
2022-11-02T10:40:39.901Z,6.96
2022-11-02T10:43:49.500Z,6.96
2022-11-02T10:46:21.796Z,7.05
2022-11-02T10:48:56.096Z,7.03
2022-11-02T10:51:24.925Z,6.95
2022-11-02T10:53:53.313Z,6.96
2022-11-02T10:56:33.058Z,7.03
2022-11-02T10:59:02.467Z,7.08
2022-11-02T11:01:31.900Z,7.08
2022-11-02T11:04:00.445Z,7.00
2022-11-02T11:06:39.262Z,6.93
2022-11-02T11:09:16.074Z,6.97
2022-11-02T11:12:15.315Z,6.98
2022-11-02T11:20:25.956Z,6.96
2022-11-02T11:23:22.222Z,6.92
2022-11-02T11:26:04.290Z,6.98
2022-11-02T11:28:52.199Z,6.97
2022-11-02T11:31:19.874Z,6.98
2022-11-02T11:33:52.192Z,7.02
2022-11-02T11:36:35.612Z,6.99
2022-11-02T11:39:24.422Z,6.96
2022-11-02T11:41:51.893Z,7.02
2022-11-02T11:44:19.606Z,6.99
2022-11-02T11:46:54.510Z,6.97
2022-11-02T11:52:29.948Z,6.95
2022-11-02T11:55:00.892Z,6.93
2022-11-02T11:57:45.914Z,6.95
2022-11-02T12:00:39.329Z,6.94
2022-11-02T12:03:09.964Z,6.88
2022-11-02T12:05:56.592Z,6.86
2022-11-02T12:08:26.322Z,6.90
2022-11-02T12:11:02.171Z,6.96
2022-11-02T12:13:47.302Z,7.00
2022-11-02T12:16:19.964Z,6.97
2022-11-02T12:19:21.872Z,6.92
2022-11-02T12:22:04.624Z,6.86
2022-11-02T12:24:51.898Z,6.80
2022-11-02T12:27:47.755Z,6.79
2022-11-02T12:30:21.506Z,6.70
2022-11-02T12:33:04.990Z,6.67
2022-11-02T12:36:00.439Z,6.53
2022-11-02T12:38:51.577Z,6.50
2022-11-02T12:41:51.452Z,6.44
2022-11-02T12:44:27.341Z,6.35
2022-11-02T12:47:06.229Z,6.27
2022-11-02T12:50:14.867Z,6.23
2022-11-02T12:52:47.904Z,6.18
2022-11-02T12:55:22.096Z,6.13
2022-11-02T12:57:49.624Z,6.07
2022-11-02T13:00:21.905Z,6.04
2022-11-02T13:02:48.869Z,5.96
2022-11-02T13:05:21.494Z,5.79
2022-11-02T13:08:17.258Z,5.69
2022-11-02T13:10:59.273Z,5.60
2022-11-02T13:13:37.300Z,5.53
2022-11-02T13:16:07.884Z,5.50
2022-11-02T13:18:42.774Z,5.50
2022-11-02T13:21:12.871Z,5.43
2022-11-02T13:23:57.045Z,5.37
2022-11-02T13:26:37.847Z,5.39
2022-11-02T13:29:22.000Z,5.38
2022-11-02T13:31:52.329Z,5.28
2022-11-02T13:34:31.670Z,5.26
2022-11-02T13:37:03.865Z,5.24
2022-11-02T13:39:37.876Z,5.24
2022-11-02T13:42:23.259Z,5.25
2022-11-02T13:45:02.299Z,5.23
2022-11-02T13:47:58.574Z,5.21
2022-11-02T13:50:27.926Z,5.18
2022-11-02T13:53:02.973Z,5.17
2022-11-02T13:55:46.235Z,5.11
2022-11-02T13:58:46.911Z,5.19
2022-11-02T14:01:17.960Z,5.20
2022-11-02T14:04:05.504Z,5.20
2022-11-02T14:06:44.197Z,5.15
2022-11-02T14:09:23.972Z,5.09
2022-11-02T14:11:51.047Z,5.05
2022-11-02T14:14:24.100Z,4.95
2022-11-02T14:16:51.164Z,5.00
2022-11-02T14:19:20.316Z,5.02
2022-11-02T14:22:00.005Z,4.96
2022-11-02T14:24:32.941Z,4.91
2022-11-02T14:27:12.950Z,4.70
2022-11-02T14:29:42.841Z,4.52
2022-11-02T14:32:24.023Z,4.43
2022-11-02T14:35:23.100Z,4.39
2022-11-02T14:38:01.449Z,4.25
2022-11-02T14:40:32.398Z,4.14
2022-11-02T14:42:59.236Z,4.18
2022-11-02T14:45:54.111Z,4.08
2022-11-02T14:48:21.207Z,4.04
2022-11-02T14:51:04.413Z,4.02
2022-11-02T14:53:38.399Z,3.96
2022-11-02T14:56:05.768Z,3.94
2022-11-02T15:05:31.923Z,3.88
2022-11-02T15:08:02.445Z,3.94
2022-11-02T15:16:12.940Z,3.96
2022-11-02T15:18:58.535Z,3.93
2022-11-02T15:21:28.938Z,3.86
2022-11-02T15:24:19.047Z,3.82
2022-11-02T15:29:44.248Z,3.70
2022-11-02T15:32:22.809Z,3.65
2022-11-02T15:34:58.532Z,3.53
2022-11-02T15:37:45.293Z,3.45
2022-11-02T15:40:35.175Z,3.35
2022-11-02T15:43:27.264Z,3.23
2022-11-02T15:46:08.377Z,3.15
2022-11-02T15:48:45.272Z,3.11
2022-11-02T15:51:18.099Z,3.02
2022-11-02T15:53:57.050Z,2.93
2022-11-02T15:56:36.174Z,2.94
2022-11-02T15:59:03.126Z,2.94
2022-11-02T16:01:30.385Z,2.90
2022-11-02T16:04:06.392Z,2.91
2022-11-02T16:06:39.402Z,2.98
2022-11-02T16:09:36.409Z,3.06
2022-11-02T16:12:24.595Z,3.17
2022-11-02T16:14:57.941Z,3.18
2022-11-02T16:17:31.860Z,3.23
2022-11-02T16:20:21.846Z,3.23
2022-11-02T16:22:50.667Z,3.26
2022-11-02T16:25:40.731Z,3.30
2022-11-02T16:28:26.427Z,3.30
2022-11-02T16:31:06.486Z,3.30
2022-11-02T16:33:42.906Z,3.33
2022-11-02T16:36:22.638Z,3.40
2022-11-02T16:39:01.936Z,3.40
2022-11-02T16:41:35.919Z,3.44
2022-11-02T16:44:10.421Z,3.47
2022-11-02T16:46:47.333Z,3.48
2022-11-02T16:49:29.775Z,3.55
2022-11-02T16:51:59.558Z,3.63
2022-11-02T16:54:42.225Z,3.70
2022-11-02T16:57:17.044Z,3.79
2022-11-02T17:00:01.625Z,3.81
2022-11-02T17:02:42.491Z,3.88
2022-11-02T17:05:22.482Z,3.90
2022-11-02T17:07:59.446Z,3.96
2022-11-02T17:10:28.849Z,3.93
2022-11-02T17:12:57.952Z,3.93
2022-11-02T17:15:32.347Z,3.82
2022-11-02T17:18:08.903Z,3.82
2022-11-02T17:20:38.413Z,3.82
2022-11-02T17:23:19.114Z,3.77
2022-11-02T17:25:46.712Z,3.72
2022-11-02T17:28:47.909Z,3.73
2022-11-02T17:31:36.114Z,3.76
2022-11-02T17:34:23.398Z,3.81
2022-11-02T17:36:50.935Z,3.80
2022-11-02T17:39:20.115Z,3.82
2022-11-02T17:42:12.175Z,3.88
2022-11-02T17:44:39.254Z,3.84
2022-11-02T17:47:15.660Z,3.76
2022-11-02T17:49:44.176Z,3.68
2022-11-02T17:52:19.018Z,3.65
2022-11-02T17:54:46.403Z,3.63
2022-11-02T17:57:14.703Z,3.54
2022-11-02T17:59:42.212Z,3.49
2022-11-02T18:02:14.075Z,3.55
2022-11-02T18:04:41.365Z,3.60
2022-11-02T18:07:09.332Z,3.57
2022-11-02T18:09:37.092Z,3.60
2022-11-02T18:12:04.404Z,3.66
2022-11-02T18:14:31.695Z,3.69
2022-11-02T18:16:58.920Z,3.65
2022-11-02T18:19:28.383Z,3.63
2022-11-02T18:21:56.994Z,3.72
2022-11-02T18:24:24.468Z,3.60
2022-11-02T18:26:51.813Z,3.56
2022-11-02T18:29:18.990Z,3.55
2022-11-02T18:31:46.755Z,3.51
2022-11-02T18:34:14.269Z,3.45
2022-11-02T18:36:41.912Z,3.52
2022-11-02T18:39:09.523Z,3.47
2022-11-02T18:41:37.653Z,3.45
2022-11-02T18:44:11.998Z,3.48
2022-11-02T18:46:42.179Z,3.47
2022-11-02T18:49:09.403Z,3.51
2022-11-02T18:51:36.412Z,3.59
2022-11-02T18:54:05.592Z,3.56
2022-11-02T18:56:32.928Z,3.53
2022-11-02T18:59:00.190Z,3.53
2022-11-02T19:01:30.350Z,3.63
2022-11-02T19:04:00.921Z,3.66
2022-11-02T19:06:49.300Z,3.61
2022-11-02T19:09:21.508Z,3.56
2022-11-02T19:12:00.896Z,3.59
2022-11-02T19:14:32.124Z,3.61
2022-11-02T19:16:59.442Z,3.64
2022-11-02T19:19:26.816Z,3.60
2022-11-02T19:21:54.442Z,3.66
2022-11-02T19:24:22.024Z,3.64
2022-11-02T19:26:49.781Z,3.65
2022-11-02T19:29:18.399Z,3.63
2022-11-02T19:31:46.124Z,3.68
2022-11-02T19:34:14.216Z,3.65
2022-11-02T19:36:41.487Z,3.72
2022-11-02T19:39:10.097Z,3.69
2022-11-02T19:41:40.318Z,3.62
2022-11-02T19:44:07.458Z,3.59
2022-11-02T19:46:34.921Z,3.50
2022-11-02T19:49:01.930Z,3.58
2022-11-02T19:51:30.966Z,3.59
2022-11-02T19:54:02.075Z,3.56
2022-11-02T19:56:31.320Z,3.56
2022-11-02T19:58:59.083Z,3.51
2022-11-02T20:01:28.823Z,3.47
2022-11-02T20:03:57.087Z,3.50
2022-11-02T20:06:25.833Z,3.45
2022-11-02T20:08:54.728Z,3.44
2022-11-02T20:11:23.042Z,3.45
2022-11-02T20:13:50.615Z,3.51
2022-11-02T20:16:19.867Z,3.47
2022-11-02T20:18:48.892Z,3.47
2022-11-02T20:21:18.588Z,3.37
2022-11-02T20:23:46.590Z,3.37
2022-11-02T20:26:16.284Z,3.37
2022-11-02T20:28:45.553Z,3.35
2022-11-02T20:31:18.358Z,3.38
2022-11-02T20:33:46.854Z,3.36
2022-11-02T20:36:14.018Z,3.36
2022-11-02T20:38:41.016Z,3.31
2022-11-02T20:41:19.388Z,3.24
2022-11-02T20:43:48.893Z,3.33
2022-11-02T20:46:37.060Z,3.35
2022-11-02T20:49:19.961Z,3.36
2022-11-02T20:51:53.107Z,3.34
2022-11-02T20:54:23.033Z,3.40
2022-11-02T20:56:50.650Z,3.38
2022-11-02T20:59:17.790Z,3.36
2022-11-02T21:01:45.815Z,3.37
2022-11-02T21:04:19.849Z,3.36
2022-11-02T21:06:48.116Z,3.37
2022-11-02T21:09:17.153Z,3.44
2022-11-02T21:12:02.962Z,3.50
2022-11-02T21:14:30.034Z,3.44
2022-11-02T21:16:56.944Z,3.38
2022-11-02T21:19:23.842Z,3.44
2022-11-02T21:21:55.051Z,3.47
2022-11-02T21:24:25.257Z,3.48
2022-11-02T21:26:52.282Z,3.50
2022-11-02T21:29:21.459Z,3.39
2022-11-02T21:31:48.814Z,3.53
2022-11-02T21:34:16.198Z,3.53
2022-11-02T21:36:43.168Z,3.59
2022-11-02T21:39:10.428Z,3.56
2022-11-02T21:41:39.103Z,3.56
2022-11-02T21:44:07.579Z,3.57
2022-11-02T21:46:35.314Z,3.50
2022-11-02T21:49:02.234Z,3.52
2022-11-02T21:51:31.377Z,3.58
2022-11-02T21:53:58.284Z,3.54
2022-11-02T21:56:27.331Z,3.52
2022-11-02T21:58:56.126Z,3.54
2022-11-02T22:01:45.317Z,3.45
2022-11-02T22:04:17.425Z,3.44
2022-11-02T22:06:44.795Z,3.37
2022-11-02T22:09:13.023Z,3.34
2022-11-02T22:11:40.658Z,3.35
2022-11-02T22:14:07.650Z,3.34
2022-11-02T22:16:39.705Z,3.37
2022-11-02T22:19:12.181Z,3.35
2022-11-02T22:21:44.336Z,3.30
2022-11-02T22:24:12.104Z,3.31
2022-11-02T22:26:39.933Z,3.35
2022-11-02T22:29:07.969Z,3.36
2022-11-02T22:31:37.119Z,3.43
2022-11-02T22:34:06.498Z,3.42
2022-11-02T22:36:34.494Z,3.36
2022-11-02T22:39:03.736Z,3.33
2022-11-02T22:41:35.152Z,3.46
2022-11-02T22:44:07.838Z,3.45
2022-11-02T22:46:37.851Z,3.41
2022-11-02T22:49:05.753Z,3.41
2022-11-02T22:51:36.339Z,3.50
2022-11-02T22:54:05.810Z,3.48
2022-11-02T22:56:33.844Z,3.50
2022-11-02T22:59:01.988Z,3.52
2022-11-02T23:01:30.602Z,3.50
2022-11-02T23:03:58.670Z,3.49
2022-11-02T23:06:26.185Z,3.50
2022-11-02T23:08:55.310Z,3.49
2022-11-02T23:11:25.182Z,3.52
2022-11-02T23:14:01.391Z,3.58
2022-11-02T23:16:34.586Z,3.58
2022-11-02T23:19:31.168Z,3.51
2022-11-02T23:22:20.761Z,3.54
2022-11-02T23:25:11.631Z,3.56
2022-11-02T23:28:03.636Z,3.57
2022-11-02T23:30:55.345Z,3.56
2022-11-02T23:33:24.667Z,3.50
2022-11-02T23:36:10.860Z,3.54
2022-11-02T23:39:22.229Z,3.52
2022-11-02T23:41:49.677Z,3.54
2022-11-02T23:44:19.083Z,3.55
2022-11-02T23:46:51.329Z,3.55
2022-11-02T23:49:19.348Z,3.59
2022-11-02T23:52:04.764Z,3.57
2022-11-02T23:54:50.361Z,3.61
2022-11-02T23:57:18.936Z,3.59
